createdAt,value
2022-11-29T00:01:30.244Z,1.90
2022-11-29T00:04:31.700Z,1.98
2022-11-29T00:07:34.438Z,1.60
2022-11-29T00:10:37.676Z,1.73
2022-11-29T00:13:39.853Z,1.70
2022-11-29T00:16:42.582Z,1.88
2022-11-29T00:19:45.117Z,1.48
2022-11-29T00:22:46.678Z,1.70
2022-11-29T00:25:48.257Z,1.70
2022-11-29T00:28:49.857Z,1.70
2022-11-29T00:31:51.300Z,1.83
2022-11-29T00:34:52.843Z,1.60
2022-11-29T00:37:54.360Z,1.60
2022-11-29T00:40:55.823Z,1.70
2022-11-29T00:43:57.383Z,1.67
2022-11-29T00:46:58.886Z,1.80
2022-11-29T00:50:00.379Z,1.80
2022-11-29T00:53:01.908Z,1.80
2022-11-29T00:56:04.897Z,1.77
2022-11-29T00:59:06.389Z,1.70
2022-11-29T01:02:08.034Z,1.85
2022-11-29T01:05:09.534Z,1.70
2022-11-29T01:08:12.006Z,1.70
2022-11-29T01:11:20.712Z,1.70
2022-11-29T01:14:22.400Z,1.65
2022-11-29T01:17:23.892Z,1.77
2022-11-29T01:20:25.836Z,1.60
2022-11-29T01:23:28.585Z,1.80
2022-11-29T01:26:30.959Z,1.73
2022-11-29T01:29:32.498Z,1.80
2022-11-29T01:32:33.994Z,1.55
2022-11-29T01:35:35.475Z,1.60
2022-11-29T01:38:37.064Z,1.73
2022-11-29T01:41:38.663Z,1.63
2022-11-29T01:44:46.639Z,1.60
2022-11-29T01:47:51.725Z,1.70
2022-11-29T01:50:55.172Z,1.60
2022-11-29T01:53:57.364Z,1.52
2022-11-29T01:56:59.563Z,1.80
2022-11-29T02:00:08.663Z,1.60
2022-11-29T02:03:16.501Z,1.80
2022-11-29T02:06:18.319Z,1.80
2022-11-29T02:09:22.340Z,1.50
2022-11-29T02:12:29.799Z,1.70
2022-11-29T02:15:42.612Z,1.60
2022-11-29T02:19:22.606Z,1.65
2022-11-29T02:22:38.893Z,1.67
2022-11-29T02:25:50.916Z,1.63
2022-11-29T02:29:31.692Z,1.75
2022-11-29T02:32:51.750Z,1.60
2022-11-29T02:36:33.973Z,1.60
2022-11-29T02:40:23.153Z,1.85
2022-11-29T02:43:53.087Z,1.70
2022-11-29T02:47:06.865Z,1.63
2022-11-29T02:50:28.340Z,1.60
2022-11-29T02:53:38.424Z,1.40
2022-11-29T02:56:42.788Z,1.67
2022-11-29T03:00:05.770Z,1.60
2022-11-29T03:03:18.587Z,1.80
2022-11-29T03:06:47.955Z,1.58
2022-11-29T03:10:01.415Z,1.80
2022-11-29T03:13:07.596Z,1.70
2022-11-29T03:16:14.545Z,1.80
2022-11-29T03:19:40.618Z,1.55
2022-11-29T03:23:20.220Z,1.60
2022-11-29T03:26:29.861Z,1.60
2022-11-29T03:29:48.471Z,1.80
2022-11-29T03:33:30.863Z,1.50
2022-11-29T03:36:59.907Z,1.60
2022-11-29T03:40:08.326Z,1.75
2022-11-29T03:43:18.011Z,1.42
2022-11-29T03:46:29.393Z,1.67
2022-11-29T03:49:39.930Z,1.55
2022-11-29T03:52:54.655Z,1.65
2022-11-29T03:56:01.484Z,1.50
2022-11-29T03:59:25.272Z,1.60
2022-11-29T04:03:05.570Z,1.60
2022-11-29T04:06:23.264Z,1.80
2022-11-29T04:09:46.693Z,1.60
2022-11-29T04:13:17.784Z,1.50
2022-11-29T04:16:39.710Z,1.30
2022-11-29T04:19:46.990Z,1.50
2022-11-29T04:22:51.505Z,1.58
2022-11-29T04:26:23.967Z,1.60
2022-11-29T04:29:46.741Z,1.30
2022-11-29T04:33:30.936Z,1.48
2022-11-29T04:36:51.343Z,1.42
2022-11-29T04:40:22.730Z,1.48
2022-11-29T04:43:36.248Z,1.55
2022-11-29T04:46:43.869Z,1.50
2022-11-29T04:49:48.261Z,1.52
2022-11-29T04:53:05.119Z,1.45
2022-11-29T04:56:28.071Z,1.50
2022-11-29T04:59:38.649Z,1.58
2022-11-29T05:02:56.741Z,1.38
2022-11-29T05:06:16.594Z,1.67
2022-11-29T05:10:09.178Z,1.40
2022-11-29T05:13:29.063Z,1.55
2022-11-29T05:16:48.122Z,1.50
2022-11-29T05:20:02.669Z,1.50
2022-11-29T05:23:22.802Z,1.60
2022-11-29T05:26:33.649Z,1.60
2022-11-29T05:29:59.242Z,1.40
2022-11-29T05:33:15.428Z,1.70
2022-11-29T05:36:35.651Z,1.40
2022-11-29T05:39:57.552Z,1.60
2022-11-29T05:43:31.089Z,1.50
2022-11-29T05:46:59.042Z,1.50
2022-11-29T05:50:10.528Z,1.60
2022-11-29T05:53:31.191Z,1.50
2022-11-29T05:56:55.356Z,1.80
2022-11-29T05:59:59.111Z,1.60
2022-11-29T06:03:21.407Z,1.42
2022-11-29T06:06:28.305Z,1.50
2022-11-29T06:09:39.757Z,2.00
2022-11-29T06:12:48.060Z,6.45
2022-11-29T06:16:31.140Z,15.63
2022-11-29T06:19:32.694Z,20.60
2022-11-29T06:23:02.050Z,24.80
2022-11-29T06:26:11.315Z,29.75
2022-11-29T06:29:43.247Z,34.60
2022-11-29T06:33:08.434Z,38.88
2022-11-29T06:36:16.144Z,42.25
2022-11-29T06:39:17.731Z,44.88
2022-11-29T06:42:19.270Z,42.30
2022-11-29T06:45:21.918Z,44.90
2022-11-29T06:48:27.076Z,47.17
2022-11-29T06:51:36.987Z,49.78
2022-11-29T06:55:01.276Z,48.25
2022-11-29T06:58:40.274Z,49.38
2022-11-29T07:01:48.051Z,47.38
2022-11-29T07:05:29.674Z,48.45
2022-11-29T07:08:31.416Z,48.00
2022-11-29T07:11:33.173Z,47.97
2022-11-29T07:14:35.631Z,46.92
2022-11-29T07:17:44.554Z,46.55
2022-11-29T07:21:11.872Z,45.85
2022-11-29T07:27:30.312Z,44.35
2022-11-29T07:30:36.818Z,44.60
2022-11-29T07:36:54.153Z,41.72
2022-11-29T07:40:10.914Z,41.05
2022-11-29T07:43:53.467Z,41.38
2022-11-29T07:46:54.983Z,40.55
2022-11-29T07:49:56.479Z,39.08
2022-11-29T07:52:59.172Z,38.25
2022-11-29T07:56:00.649Z,37.95
2022-11-29T07:59:02.616Z,36.95
2022-11-29T08:02:11.288Z,36.83
2022-11-29T08:05:13.459Z,34.83
2022-11-29T08:08:15.332Z,34.35
2022-11-29T08:11:16.794Z,33.65
2022-11-29T08:14:18.344Z,33.95
2022-11-29T08:17:19.859Z,32.72
2022-11-29T08:20:21.458Z,30.65
2022-11-29T08:23:22.940Z,30.02
2022-11-29T08:26:28.284Z,29.20
2022-11-29T08:29:32.834Z,28.15
2022-11-29T08:32:34.862Z,27.52
2022-11-29T08:35:36.403Z,26.15
2022-11-29T08:38:38.044Z,26.02
2022-11-29T08:41:39.547Z,25.00
2022-11-29T08:44:41.099Z,25.05
2022-11-29T08:47:42.933Z,23.88
2022-11-29T08:50:44.888Z,23.63
2022-11-29T08:53:51.487Z,23.35
2022-11-29T08:57:37.294Z,23.15
2022-11-29T09:00:15.378Z,22.88
2022-11-29T09:03:35.372Z,22.70
2022-11-29T09:06:39.380Z,22.13
2022-11-29T09:09:40.940Z,22.33
2022-11-29T09:12:44.151Z,21.27
2022-11-29T09:15:45.707Z,20.40
2022-11-29T09:18:51.933Z,21.13
2022-11-29T09:24:55.250Z,20.25
2022-11-29T09:27:58.828Z,19.95
2022-11-29T09:31:06.292Z,19.83
2022-11-29T09:34:07.959Z,18.98
2022-11-29T09:37:09.460Z,19.45
2022-11-29T09:40:18.219Z,18.50
2022-11-29T09:43:40.648Z,17.90
2022-11-29T09:47:04.034Z,17.60
2022-11-29T09:50:11.765Z,18.00
2022-11-29T09:53:47.583Z,18.00
2022-11-29T09:56:53.063Z,17.52
2022-11-29T09:59:59.203Z,17.25
2022-11-29T10:03:08.356Z,16.63
2022-11-29T10:06:27.556Z,15.80
2022-11-29T10:09:38.260Z,16.75
2022-11-29T10:12:44.322Z,15.73
2022-11-29T10:15:48.650Z,15.13
2022-11-29T10:18:54.028Z,14.05
2022-11-29T10:22:33.689Z,11.15
2022-11-29T10:25:46.463Z,9.30
2022-11-29T10:28:49.255Z,9.55
2022-11-29T10:31:54.865Z,8.85
2022-11-29T10:34:58.560Z,7.97
2022-11-29T10:41:23.696Z,8.13
2022-11-29T10:44:25.463Z,8.48
2022-11-29T10:47:27.035Z,7.50
2022-11-29T10:50:31.890Z,7.50
2022-11-29T10:53:37.235Z,7.25
2022-11-29T10:56:40.285Z,7.10
2022-11-29T10:59:42.048Z,7.20
2022-11-29T11:02:43.592Z,6.75
2022-11-29T11:06:01.695Z,6.78
2022-11-29T11:09:35.506Z,6.47
2022-11-29T11:12:36.995Z,6.70
2022-11-29T11:15:38.491Z,6.40
2022-11-29T11:18:40.026Z,6.70
2022-11-29T11:21:41.604Z,6.50
2022-11-29T11:24:44.393Z,6.13
2022-11-29T11:27:47.142Z,6.35
2022-11-29T11:31:01.663Z,6.20
2022-11-29T11:34:36.738Z,6.20
2022-11-29T11:37:38.303Z,5.47
2022-11-29T11:40:39.833Z,5.40
2022-11-29T11:43:41.578Z,5.97
2022-11-29T11:46:49.193Z,5.95
2022-11-29T11:50:04.405Z,5.28
2022-11-29T11:53:18.374Z,5.63
2022-11-29T11:56:20.422Z,5.45
2022-11-29T11:59:24.845Z,5.35
2022-11-29T12:02:40.966Z,5.38
2022-11-29T12:05:46.235Z,5.47
2022-11-29T12:08:49.290Z,5.57
2022-11-29T12:12:01.354Z,5.35
2022-11-29T12:15:20.461Z,4.85
2022-11-29T12:18:34.008Z,5.85
2022-11-29T12:21:41.914Z,5.05
2022-11-29T12:24:52.971Z,5.30
2022-11-29T12:27:54.505Z,5.10
2022-11-29T12:31:23.928Z,5.75
2022-11-29T12:34:53.106Z,4.80
2022-11-29T12:38:09.206Z,5.07
2022-11-29T12:41:54.168Z,5.63
2022-11-29T12:45:23.495Z,5.18
2022-11-29T12:48:49.690Z,5.00
2022-11-29T12:52:21.740Z,5.53
2022-11-29T12:55:46.762Z,4.65
2022-11-29T12:59:06.788Z,4.75
2022-11-29T13:02:24.396Z,4.95
2022-11-29T13:06:07.795Z,5.30
2022-11-29T13:09:21.349Z,5.03
2022-11-29T13:12:36.852Z,4.72
2022-11-29T13:15:44.580Z,4.85
2022-11-29T13:18:53.386Z,4.45
2022-11-29T13:22:25.394Z,4.80
2022-11-29T13:25:38.353Z,4.53
2022-11-29T13:28:41.976Z,4.93
2022-11-29T13:31:45.546Z,4.47
2022-11-29T13:34:50.666Z,4.78
2022-11-29T13:38:03.253Z,4.20
2022-11-29T13:41:27.342Z,4.35
2022-11-29T13:44:46.280Z,4.45
2022-11-29T13:47:58.146Z,4.22
2022-11-29T13:51:28.212Z,4.00
2022-11-29T13:54:32.672Z,4.30
2022-11-29T13:58:15.505Z,4.38
2022-11-29T14:01:16.080Z,4.60
2022-11-29T14:04:37.502Z,4.43
2022-11-29T14:08:18.152Z,4.22
2022-11-29T14:11:56.159Z,4.57
2022-11-29T14:15:02.639Z,4.45
2022-11-29T14:21:10.243Z,4.10
2022-11-29T14:24:36.805Z,4.10
2022-11-29T14:27:56.109Z,3.90
2022-11-29T14:31:01.235Z,3.92
2022-11-29T14:34:08.836Z,4.00
2022-11-29T14:37:22.409Z,3.92
2022-11-29T14:40:50.479Z,3.92
2022-11-29T14:44:04.796Z,3.80
2022-11-29T14:47:20.138Z,4.80
2022-11-29T14:50:38.388Z,10.02
2022-11-29T14:53:42.288Z,18.65
2022-11-29T14:56:45.503Z,26.08
2022-11-29T14:59:54.172Z,34.08
2022-11-29T15:03:10.556Z,37.15
2022-11-29T15:06:24.186Z,39.63
2022-11-29T15:09:26.987Z,37.05
2022-11-29T15:12:34.378Z,37.38
2022-11-29T15:15:58.127Z,35.13
2022-11-29T15:19:08.574Z,33.65
2022-11-29T15:22:22.806Z,31.00
2022-11-29T15:25:27.491Z,30.70
2022-11-29T15:28:30.015Z,29.50
2022-11-29T15:31:31.726Z,28.33
2022-11-29T15:34:50.166Z,28.35
2022-11-29T15:37:53.355Z,26.35
2022-11-29T15:40:55.824Z,25.85
2022-11-29T15:44:03.116Z,25.77
2022-11-29T15:47:36.902Z,24.42
2022-11-29T15:50:42.786Z,24.88
2022-11-29T15:54:12.719Z,23.77
2022-11-29T15:57:34.905Z,23.23
2022-11-29T16:00:36.716Z,22.27
2022-11-29T16:03:41.076Z,22.58
2022-11-29T16:06:44.249Z,23.15
2022-11-29T16:09:51.208Z,21.90
2022-11-29T16:12:54.953Z,21.45
2022-11-29T16:16:08.375Z,21.23
2022-11-29T16:19:37.925Z,20.27
2022-11-29T16:22:39.670Z,19.95
2022-11-29T16:25:59.721Z,20.08
2022-11-29T16:29:01.867Z,19.05
2022-11-29T16:32:28.332Z,18.75
2022-11-29T16:35:33.662Z,19.27
2022-11-29T16:38:35.296Z,18.45
2022-11-29T16:41:38.382Z,18.40
2022-11-29T16:44:39.868Z,17.75
2022-11-29T16:47:52.846Z,18.27
2022-11-29T16:51:09.413Z,19.13
2022-11-29T16:54:27.809Z,18.60
2022-11-29T16:57:30.136Z,18.60
2022-11-29T17:00:33.301Z,19.00
2022-11-29T17:03:34.762Z,17.30
2022-11-29T17:06:36.877Z,18.35
2022-11-29T17:09:38.899Z,16.52
2022-11-29T17:12:44.858Z,16.73
2022-11-29T17:15:49.378Z,16.00
2022-11-29T17:18:52.689Z,16.85
2022-11-29T17:21:54.163Z,15.82
2022-11-29T17:24:55.615Z,15.63
2022-11-29T17:27:57.837Z,15.85
2022-11-29T17:30:59.360Z,15.52
2022-11-29T17:34:01.311Z,15.18
2022-11-29T17:37:02.843Z,15.30
2022-11-29T17:40:04.981Z,15.38
2022-11-29T17:43:07.079Z,15.10
2022-11-29T17:46:15.790Z,14.13
2022-11-29T17:49:18.645Z,14.98
2022-11-29T17:52:20.183Z,14.98
2022-11-29T17:55:24.700Z,14.57
2022-11-29T17:58:29.865Z,13.70
2022-11-29T18:01:33.886Z,15.20
2022-11-29T18:04:35.946Z,14.68
2022-11-29T18:07:57.462Z,12.65
2022-11-29T18:11:32.976Z,12.07
2022-11-29T18:14:41.279Z,11.20
2022-11-29T18:17:42.822Z,11.32
2022-11-29T18:20:44.329Z,11.20
2022-11-29T18:23:45.784Z,10.73
2022-11-29T18:26:47.345Z,11.02
2022-11-29T18:29:48.960Z,10.73
2022-11-29T18:32:50.582Z,10.43
2022-11-29T18:35:52.117Z,10.65
2022-11-29T18:39:01.243Z,10.10
2022-11-29T18:42:02.769Z,9.70
2022-11-29T18:45:04.638Z,9.60
2022-11-29T18:48:06.134Z,9.57
2022-11-29T18:51:14.072Z,9.27
2022-11-29T18:54:17.804Z,9.13
2022-11-29T18:57:19.256Z,9.10
2022-11-29T19:00:21.054Z,9.85
2022-11-29T19:03:22.503Z,9.20
2022-11-29T19:06:35.427Z,8.27
2022-11-29T19:09:40.326Z,8.60
2022-11-29T19:12:41.806Z,8.27
2022-11-29T19:15:43.377Z,8.07
2022-11-29T19:18:45.571Z,7.75
2022-11-29T19:21:47.502Z,8.57
2022-11-29T19:24:49.042Z,7.70
2022-11-29T19:27:50.562Z,7.90
2022-11-29T19:30:55.350Z,8.23
2022-11-29T19:33:57.831Z,7.55
2022-11-29T19:36:59.297Z,7.53
2022-11-29T19:40:00.759Z,8.10
2022-11-29T19:43:02.237Z,7.57
2022-11-29T19:46:11.870Z,7.10
2022-11-29T19:49:13.404Z,7.50
2022-11-29T19:52:14.902Z,6.70
2022-11-29T19:55:16.462Z,7.75
2022-11-29T19:58:18.035Z,7.20
2022-11-29T20:01:27.830Z,7.30
2022-11-29T20:04:29.351Z,6.95
2022-11-29T20:07:31.197Z,7.28
2022-11-29T20:10:34.177Z,6.50
2022-11-29T20:13:37.072Z,6.65
2022-11-29T20:16:39.035Z,6.40
2022-11-29T20:19:40.601Z,6.88
2022-11-29T20:22:42.087Z,6.82
2022-11-29T20:25:48.424Z,6.22
2022-11-29T20:28:50.200Z,10.60
2022-11-29T20:31:51.866Z,11.20
2022-11-29T20:34:53.716Z,11.68
2022-11-29T20:38:18.950Z,11.15
2022-11-29T20:41:33.949Z,10.98
2022-11-29T20:44:57.552Z,11.50
2022-11-29T20:48:11.929Z,11.95
2022-11-29T20:51:15.159Z,9.52
2022-11-29T20:54:19.144Z,9.13
2022-11-29T20:57:20.849Z,8.77
2022-11-29T21:00:22.593Z,8.50
2022-11-29T21:03:26.669Z,7.60
2022-11-29T21:06:28.200Z,8.40
2022-11-29T21:09:29.670Z,7.20
2022-11-29T21:12:31.781Z,7.25
2022-11-29T21:15:33.807Z,7.20
2022-11-29T21:18:35.711Z,7.03
2022-11-29T21:21:57.427Z,7.20
2022-11-29T21:25:26.599Z,5.95
2022-11-29T21:28:34.401Z,6.13
2022-11-29T21:31:36.451Z,6.25
2022-11-29T21:34:37.976Z,6.63
2022-11-29T21:37:40.086Z,6.18
2022-11-29T21:40:41.568Z,6.70
2022-11-29T21:44:05.343Z,6.13
2022-11-29T21:47:04.798Z,6.15
2022-11-29T21:50:07.131Z,5.60
2022-11-29T21:53:08.584Z,6.00
2022-11-29T21:56:11.218Z,6.15
2022-11-29T21:59:12.683Z,6.00
2022-11-29T22:02:14.365Z,5.88
2022-11-29T22:05:16.092Z,6.60
2022-11-29T22:08:18.104Z,6.10
2022-11-29T22:11:31.328Z,5.80
2022-11-29T22:14:32.838Z,6.00
2022-11-29T22:17:34.290Z,5.88
2022-11-29T22:20:35.743Z,5.78
2022-11-29T22:23:37.195Z,5.75
2022-11-29T22:26:39.285Z,5.68
2022-11-29T22:29:40.789Z,6.13
2022-11-29T22:32:42.286Z,6.50
2022-11-29T22:35:44.252Z,5.70
2022-11-29T22:38:45.777Z,5.50
2022-11-29T22:41:53.691Z,5.60
2022-11-29T22:44:55.769Z,5.85
2022-11-29T22:47:57.913Z,5.13
2022-11-29T22:51:08.227Z,5.70
2022-11-29T22:54:11.473Z,5.22
2022-11-29T22:57:13.007Z,5.40
2022-11-29T23:00:14.751Z,5.47
2022-11-29T23:03:16.283Z,5.20
2022-11-29T23:06:20.368Z,5.30
2022-11-29T23:09:22.332Z,5.10
2022-11-29T23:12:25.598Z,4.90
2022-11-29T23:15:27.110Z,5.05
2022-11-29T23:18:29.062Z,5.28
2022-11-29T23:21:33.229Z,5.13
2022-11-29T23:24:34.722Z,5.57
2022-11-29T23:27:36.251Z,5.38
2022-11-29T23:30:37.767Z,5.15
2022-11-29T23:33:39.402Z,5.18
2022-11-29T23:36:41.461Z,5.40
2022-11-29T23:39:42.916Z,5.50
2022-11-29T23:42:47.200Z,5.00
2022-11-29T23:45:49.149Z,4.90
2022-11-29T23:48:50.877Z,5.10
2022-11-29T23:51:52.335Z,5.18
2022-11-29T23:54:53.843Z,5.18
2022-11-29T23:57:55.347Z,5.30
